createdAt,value
2023-01-25T00:01:19.005Z,16.27
2023-01-25T00:04:22.884Z,16.60
2023-01-25T00:07:26.139Z,17.10
2023-01-25T00:10:29.176Z,16.77
2023-01-25T00:13:32.279Z,17.17
2023-01-25T00:16:37.782Z,16.13
2023-01-25T00:19:40.856Z,16.70
2023-01-25T00:22:43.873Z,16.43
2023-01-25T00:25:46.850Z,16.87
2023-01-25T00:28:50.925Z,16.43
2023-01-25T00:32:04.000Z,16.80
2023-01-25T00:35:11.771Z,15.47
2023-01-25T00:38:29.501Z,17.00
2023-01-25T00:41:32.661Z,17.60
2023-01-25T00:44:35.581Z,17.33
2023-01-25T00:47:39.995Z,17.80
2023-01-25T00:50:42.869Z,16.27
2023-01-25T00:53:45.976Z,16.87
2023-01-25T00:56:48.966Z,17.07
2023-01-25T00:59:51.970Z,16.50
2023-01-25T01:02:56.813Z,18.23
2023-01-25T01:06:18.072Z,17.37
2023-01-25T01:09:21.664Z,16.00
2023-01-25T01:12:24.519Z,18.03
2023-01-25T01:16:22.467Z,17.83
2023-01-25T01:19:54.640Z,16.63
2023-01-25T01:22:57.885Z,17.97
2023-01-25T01:26:01.593Z,16.83
2023-01-25T01:29:04.720Z,17.17
2023-01-25T01:32:07.905Z,16.90
2023-01-25T01:35:12.482Z,16.97
2023-01-25T01:38:15.573Z,16.40
2023-01-25T01:41:19.709Z,16.37
2023-01-25T01:44:38.854Z,16.90
2023-01-25T01:47:45.916Z,17.23
2023-01-25T01:50:54.598Z,16.87
2023-01-25T01:54:01.636Z,16.70
2023-01-25T01:57:08.434Z,16.20
2023-01-25T02:00:15.390Z,17.20
2023-01-25T02:03:18.719Z,16.00
2023-01-25T02:06:29.860Z,16.90
2023-01-25T02:09:35.863Z,16.00
2023-01-25T02:12:39.802Z,17.50
2023-01-25T02:15:46.126Z,16.60
2023-01-25T02:18:49.157Z,16.27
2023-01-25T02:21:55.973Z,17.07
2023-01-25T02:25:05.900Z,18.10
2023-01-25T02:28:15.325Z,17.77
2023-01-25T02:31:19.097Z,17.07
2023-01-25T02:34:22.175Z,16.77
2023-01-25T02:37:25.380Z,16.43
2023-01-25T02:40:32.264Z,17.27
2023-01-25T02:43:36.625Z,16.30
2023-01-25T02:46:41.212Z,16.00
2023-01-25T02:49:44.234Z,16.10
2023-01-25T02:52:47.237Z,16.70
2023-01-25T02:55:51.670Z,15.93
2023-01-25T02:58:54.894Z,17.00
2023-01-25T03:01:58.084Z,14.53
2023-01-25T03:05:01.163Z,15.57
2023-01-25T03:08:04.213Z,17.03
2023-01-25T03:11:08.959Z,17.30
2023-01-25T03:14:12.006Z,15.83
2023-01-25T03:17:15.048Z,16.80
2023-01-25T03:20:18.299Z,16.10
2023-01-25T03:23:21.334Z,17.23
2023-01-25T03:26:27.176Z,19.33
2023-01-25T03:29:30.147Z,17.57
2023-01-25T03:32:33.240Z,18.37
2023-01-25T03:35:36.352Z,18.00
2023-01-25T03:38:39.486Z,18.47
2023-01-25T03:41:43.881Z,18.77
2023-01-25T03:44:46.837Z,19.57
2023-01-25T03:47:49.854Z,20.40
2023-01-25T03:50:53.273Z,17.60
2023-01-25T03:53:56.293Z,18.13
2023-01-25T03:57:00.709Z,18.57
2023-01-25T04:00:03.846Z,18.50
2023-01-25T04:03:06.943Z,18.07
2023-01-25T04:06:10.197Z,15.33
2023-01-25T04:09:14.448Z,15.23
2023-01-25T04:12:19.045Z,14.50
2023-01-25T04:15:22.035Z,14.50
2023-01-25T04:18:25.199Z,15.43
2023-01-25T04:21:28.250Z,15.50
2023-01-25T04:24:31.330Z,15.27
2023-01-25T04:27:35.697Z,13.47
2023-01-25T04:30:38.842Z,13.80
2023-01-25T04:33:42.112Z,13.43
2023-01-25T04:36:45.289Z,13.20
2023-01-25T04:39:48.291Z,14.00
2023-01-25T04:42:52.610Z,14.73
2023-01-25T04:45:55.621Z,13.73
2023-01-25T04:48:58.728Z,13.53
2023-01-25T04:52:01.731Z,12.60
2023-01-25T04:55:05.028Z,12.57
2023-01-25T04:58:09.461Z,14.50
2023-01-25T05:01:12.806Z,13.87
2023-01-25T05:04:15.872Z,13.80
2023-01-25T05:07:18.864Z,12.70
2023-01-25T05:10:22.543Z,12.93
2023-01-25T05:13:26.916Z,13.97
2023-01-25T05:16:29.915Z,12.90
2023-01-25T05:19:33.164Z,12.43
2023-01-25T05:22:36.357Z,14.20
2023-01-25T05:25:56.619Z,14.80
2023-01-25T05:29:01.016Z,14.13
2023-01-25T05:32:04.887Z,14.93
2023-01-25T05:35:08.747Z,16.20
2023-01-25T05:38:11.884Z,15.63
2023-01-25T05:41:14.930Z,14.57
2023-01-25T05:44:19.292Z,13.83
2023-01-25T05:47:22.319Z,14.20
2023-01-25T05:50:26.827Z,14.13
2023-01-25T05:53:30.451Z,14.73
2023-01-25T05:56:33.606Z,14.23
2023-01-25T05:59:38.140Z,14.37
2023-01-25T06:02:41.367Z,13.50
2023-01-25T06:05:44.361Z,14.33
2023-01-25T06:08:47.591Z,14.00
2023-01-25T06:11:50.887Z,12.80
2023-01-25T06:14:55.244Z,12.13
2023-01-25T06:17:58.353Z,12.40
2023-01-25T06:21:02.885Z,13.63
2023-01-25T06:24:06.444Z,12.90
2023-01-25T06:27:10.912Z,12.37
2023-01-25T06:30:15.660Z,12.53
2023-01-25T06:33:18.690Z,12.50
2023-01-25T06:36:23.241Z,14.03
2023-01-25T06:39:26.380Z,12.73
2023-01-25T06:42:29.410Z,14.23
2023-01-25T06:45:33.866Z,13.23
2023-01-25T06:48:37.455Z,14.33
2023-01-25T06:51:40.483Z,15.50
2023-01-25T06:54:43.471Z,15.00
2023-01-25T06:57:46.509Z,14.57
2023-01-25T07:00:50.899Z,14.67
2023-01-25T07:03:55.760Z,16.23
2023-01-25T07:06:58.886Z,15.67
2023-01-25T07:10:02.227Z,15.63
2023-01-25T07:13:05.271Z,16.30
2023-01-25T07:16:14.386Z,15.83
2023-01-25T07:19:17.925Z,17.13
2023-01-25T07:22:20.950Z,18.57
2023-01-25T07:25:23.936Z,16.47
2023-01-25T07:28:27.037Z,17.10
2023-01-25T07:31:31.908Z,19.77
2023-01-25T07:34:35.033Z,19.20
2023-01-25T07:37:38.047Z,19.83
2023-01-25T07:40:41.079Z,19.53
2023-01-25T07:43:44.192Z,19.37
2023-01-25T07:46:48.643Z,19.27
2023-01-25T07:49:51.727Z,20.10
2023-01-25T07:52:54.880Z,20.90
2023-01-25T07:56:00.103Z,21.87
2023-01-25T07:59:03.685Z,22.40
2023-01-25T08:02:10.022Z,24.07
2023-01-25T08:05:13.002Z,22.77
2023-01-25T08:08:16.506Z,23.17
2023-01-25T08:11:22.723Z,22.57
2023-01-25T08:14:25.815Z,22.73
2023-01-25T08:17:33.277Z,21.93
2023-01-25T08:20:37.727Z,23.83
2023-01-25T08:23:40.799Z,23.10
2023-01-25T08:26:44.623Z,26.20
2023-01-25T08:29:50.422Z,25.40
2023-01-25T08:32:55.132Z,23.60
2023-01-25T08:35:58.476Z,21.53
2023-01-25T08:39:03.361Z,20.77
2023-01-25T08:42:07.319Z,20.57
2023-01-25T08:45:11.387Z,21.03
2023-01-25T08:48:16.642Z,24.07
2023-01-25T08:51:19.646Z,21.47
2023-01-25T08:54:24.383Z,23.97
2023-01-25T08:57:27.439Z,24.90
2023-01-25T09:00:30.455Z,22.43
2023-01-25T09:03:37.801Z,20.70
2023-01-25T09:06:40.865Z,19.73
2023-01-25T09:09:43.891Z,18.13
2023-01-25T09:12:47.010Z,19.87
2023-01-25T09:15:50.074Z,19.37
2023-01-25T09:18:55.168Z,20.50
2023-01-25T09:21:58.118Z,21.37
2023-01-25T09:25:01.246Z,19.20
2023-01-25T09:28:11.166Z,19.47
2023-01-25T09:31:21.629Z,17.70
2023-01-25T09:34:26.926Z,18.73
2023-01-25T09:37:30.029Z,17.00
2023-01-25T09:40:40.002Z,18.33
2023-01-25T09:44:14.211Z,18.73
2023-01-25T09:47:27.414Z,18.93
2023-01-25T09:50:42.926Z,19.00
2023-01-25T09:53:50.773Z,20.17
2023-01-25T09:56:54.073Z,18.80
2023-01-25T09:59:59.223Z,19.60
2023-01-25T10:03:12.218Z,19.23
2023-01-25T10:06:18.855Z,19.80
2023-01-25T10:09:30.196Z,20.20
2023-01-25T10:12:38.057Z,18.83
2023-01-25T10:15:45.279Z,18.37
2023-01-25T10:18:57.159Z,17.73
2023-01-25T10:22:06.258Z,18.73
2023-01-25T10:25:32.246Z,19.53
2023-01-25T10:28:46.090Z,19.23
2023-01-25T10:31:53.309Z,18.37
2023-01-25T10:34:58.973Z,20.47
2023-01-25T10:38:07.933Z,20.40
2023-01-25T10:41:17.723Z,19.07
2023-01-25T10:44:24.528Z,18.90
2023-01-25T10:47:30.980Z,19.40
2023-01-25T10:50:54.362Z,20.07
2023-01-25T10:54:03.643Z,21.00
2023-01-25T10:57:08.818Z,20.53
2023-01-25T11:00:25.433Z,21.23
2023-01-25T11:03:37.267Z,21.80
2023-01-25T11:06:49.374Z,21.37
2023-01-25T11:09:54.193Z,19.83
2023-01-25T11:13:23.359Z,19.60
2023-01-25T11:16:32.889Z,19.63
2023-01-25T11:19:37.445Z,20.20
2023-01-25T11:22:50.733Z,19.60
2023-01-25T11:25:55.114Z,19.93
2023-01-25T11:29:12.198Z,20.97
2023-01-25T11:32:23.782Z,20.90
2023-01-25T11:35:33.824Z,22.57
2023-01-25T11:38:38.741Z,21.60
2023-01-25T11:41:59.632Z,21.67
2023-01-25T11:45:31.765Z,22.60
2023-01-25T11:48:57.098Z,22.93
2023-01-25T11:52:16.683Z,22.30
2023-01-25T11:55:27.268Z,22.53
2023-01-25T11:58:47.772Z,22.97
2023-01-25T12:02:04.730Z,21.63
2023-01-25T12:05:23.977Z,23.67
2023-01-25T12:08:46.099Z,24.77
2023-01-25T12:12:10.660Z,25.23
2023-01-25T12:15:36.223Z,25.47
2023-01-25T12:19:03.655Z,22.27
2023-01-25T12:22:30.480Z,22.07
2023-01-25T12:25:46.610Z,21.90
2023-01-25T12:28:52.983Z,23.50
2023-01-25T12:32:02.107Z,22.30
2023-01-25T12:35:22.070Z,20.60
2023-01-25T12:38:31.020Z,22.03
2023-01-25T12:41:40.948Z,22.90
2023-01-25T12:44:48.635Z,24.57
2023-01-25T12:47:58.019Z,23.50
2023-01-25T12:51:01.613Z,26.50
2023-01-25T12:54:15.139Z,26.00
2023-01-25T12:57:25.936Z,25.57
2023-01-25T13:00:38.612Z,26.07
2023-01-25T13:03:57.825Z,24.47
2023-01-25T13:07:09.015Z,23.90
2023-01-25T13:10:21.391Z,25.67
2023-01-25T13:13:26.450Z,24.80
2023-01-25T13:16:43.161Z,26.33
2023-01-25T13:19:47.703Z,24.70
2023-01-25T13:22:58.889Z,24.57
2023-01-25T13:26:39.670Z,25.37
2023-01-25T13:29:47.213Z,25.57
2023-01-25T13:33:02.206Z,21.23
2023-01-25T13:36:45.537Z,21.87
2023-01-25T13:39:49.566Z,20.43
2023-01-25T13:43:02.031Z,20.90
2023-01-25T13:46:07.872Z,21.30
2023-01-25T13:49:23.839Z,22.13
2023-01-25T13:52:31.107Z,20.87
2023-01-25T13:55:40.851Z,21.23
2023-01-25T13:58:47.950Z,20.00
2023-01-25T14:01:51.686Z,19.67
2023-01-25T14:04:55.533Z,20.80
2023-01-25T14:08:00.020Z,20.30
2023-01-25T14:11:03.136Z,20.90
2023-01-25T14:14:19.585Z,20.70
2023-01-25T14:17:25.434Z,21.23
2023-01-25T14:20:28.431Z,21.37
2023-01-25T14:23:34.213Z,21.07
2023-01-25T14:26:39.069Z,21.50
2023-01-25T14:29:43.043Z,21.40
2023-01-25T14:32:46.167Z,22.00
2023-01-25T14:35:55.653Z,20.30
2023-01-25T14:39:04.501Z,19.30
2023-01-25T14:42:08.258Z,18.23
2023-01-25T14:45:14.401Z,19.80
2023-01-25T14:48:40.742Z,20.67
2023-01-25T14:51:46.859Z,19.03
2023-01-25T14:54:53.463Z,20.77
2023-01-25T14:58:00.705Z,21.27
2023-01-25T15:01:04.132Z,21.37
2023-01-25T15:04:12.619Z,22.10
2023-01-25T15:07:41.543Z,20.10
2023-01-25T15:10:56.741Z,21.80
2023-01-25T15:14:02.951Z,20.97
2023-01-25T15:17:05.950Z,20.00
2023-01-25T15:20:29.139Z,18.13
2023-01-25T15:23:32.253Z,20.40
2023-01-25T15:26:37.695Z,18.83
2023-01-25T15:29:41.218Z,20.47
2023-01-25T15:32:44.606Z,20.33
2023-01-25T15:35:48.154Z,25.23
2023-01-25T15:38:51.424Z,22.40
2023-01-25T15:41:55.874Z,21.07
2023-01-25T15:44:58.895Z,21.43
2023-01-25T15:48:01.920Z,20.17
2023-01-25T15:51:05.540Z,20.37
2023-01-25T15:54:09.457Z,20.70
2023-01-25T15:57:30.567Z,21.10
2023-01-25T16:00:33.555Z,20.73
2023-01-25T16:03:36.571Z,20.47
2023-01-25T16:06:42.902Z,19.80
2023-01-25T16:09:45.886Z,18.93
2023-01-25T16:12:50.659Z,18.70
2023-01-25T16:15:56.924Z,19.77
2023-01-25T16:19:01.504Z,18.93
2023-01-25T16:22:04.503Z,18.50
2023-01-25T16:25:09.252Z,18.47
2023-01-25T16:28:16.619Z,18.83
2023-01-25T16:31:31.779Z,17.20
2023-01-25T16:34:36.134Z,18.93
2023-01-25T16:37:39.135Z,16.50
2023-01-25T16:40:42.452Z,19.13
2023-01-25T16:43:48.237Z,18.63
2023-01-25T16:46:51.732Z,19.60
2023-01-25T16:49:54.747Z,17.50
2023-01-25T16:52:59.978Z,17.93
2023-01-25T16:56:03.162Z,19.90
2023-01-25T16:59:09.297Z,17.77
2023-01-25T17:02:13.197Z,17.80
2023-01-25T17:05:16.162Z,17.93
2023-01-25T17:08:19.210Z,19.93
2023-01-25T17:11:23.279Z,18.10
2023-01-25T17:14:27.688Z,19.50
2023-01-25T17:17:31.254Z,20.03
2023-01-25T17:20:34.279Z,20.40
2023-01-25T17:23:38.551Z,17.07
2023-01-25T17:26:41.851Z,20.00
2023-01-25T17:29:46.219Z,17.70
2023-01-25T17:32:49.336Z,17.43
2023-01-25T17:35:58.320Z,18.27
2023-01-25T17:39:04.894Z,17.10
2023-01-25T17:42:10.739Z,17.50
2023-01-25T17:45:15.123Z,17.30
2023-01-25T17:48:18.149Z,16.70
2023-01-25T17:51:23.420Z,17.20
2023-01-25T17:54:27.943Z,16.47
2023-01-25T17:57:31.550Z,17.13
2023-01-25T18:00:36.012Z,17.83
2023-01-25T18:03:38.995Z,17.30
2023-01-25T18:06:42.204Z,16.00
2023-01-25T18:09:45.246Z,18.00
2023-01-25T18:13:03.753Z,17.93
2023-01-25T18:16:10.434Z,19.37
2023-01-25T18:19:14.474Z,19.27
2023-01-25T18:22:18.043Z,18.10
2023-01-25T18:25:34.018Z,17.90
2023-01-25T18:28:37.338Z,18.77
2023-01-25T18:31:42.502Z,19.03
2023-01-25T18:34:47.976Z,17.73
2023-01-25T18:37:51.036Z,19.60
2023-01-25T18:40:54.398Z,18.53
2023-01-25T18:43:57.639Z,19.77
2023-01-25T18:47:02.419Z,19.77
2023-01-25T18:50:06.693Z,18.90
2023-01-25T18:53:10.234Z,19.47
2023-01-25T18:56:15.700Z,18.80
2023-01-25T18:59:18.687Z,18.17
2023-01-25T19:02:23.892Z,19.30
2023-01-25T19:05:27.225Z,19.67
2023-01-25T19:08:32.353Z,18.87
2023-01-25T19:11:35.349Z,18.63
2023-01-25T19:14:38.456Z,18.03
2023-01-25T19:17:42.816Z,18.53
2023-01-25T19:20:45.794Z,17.10
2023-01-25T19:23:49.507Z,17.47
2023-01-25T19:26:54.148Z,17.20
2023-01-25T19:29:57.195Z,17.03
2023-01-25T19:33:01.578Z,17.17
2023-01-25T19:36:06.606Z,17.10
2023-01-25T19:39:10.163Z,16.33
2023-01-25T19:42:13.261Z,15.37
2023-01-25T19:45:16.359Z,15.93
2023-01-25T19:48:20.754Z,16.33
2023-01-25T19:51:26.129Z,17.33
2023-01-25T19:54:29.322Z,16.73
2023-01-25T19:57:32.557Z,17.43
2023-01-25T20:00:36.223Z,17.17
2023-01-25T20:03:41.154Z,16.47
2023-01-25T20:06:44.327Z,17.20
2023-01-25T20:09:47.335Z,15.80
2023-01-25T20:12:50.315Z,15.63
2023-01-25T20:15:53.416Z,15.80
2023-01-25T20:18:58.227Z,16.07
2023-01-25T20:22:01.300Z,15.70
2023-01-25T20:25:04.410Z,16.30
2023-01-25T20:28:07.385Z,15.70
2023-01-25T20:31:20.206Z,15.67
2023-01-25T20:34:25.148Z,16.07
2023-01-25T20:37:28.141Z,16.73
2023-01-25T20:40:31.193Z,16.30
2023-01-25T20:43:34.928Z,15.93
2023-01-25T20:46:39.425Z,15.70
2023-01-25T20:49:44.550Z,16.13
2023-01-25T20:52:47.623Z,15.30
2023-01-25T20:55:56.332Z,15.20
2023-01-25T20:58:59.776Z,15.47
2023-01-25T21:02:02.791Z,14.23
2023-01-25T21:05:08.181Z,15.57
2023-01-25T21:08:11.372Z,15.97
2023-01-25T21:11:14.598Z,14.67
2023-01-25T21:14:19.383Z,15.47
2023-01-25T21:17:22.422Z,15.00
2023-01-25T21:20:26.779Z,15.53
2023-01-25T21:23:29.942Z,15.67
2023-01-25T21:26:34.787Z,15.87
2023-01-25T21:29:37.883Z,15.07
2023-01-25T21:32:40.910Z,16.53
2023-01-25T21:35:45.392Z,15.20
2023-01-25T21:38:49.897Z,14.40
2023-01-25T21:41:52.863Z,15.83
2023-01-25T21:45:13.169Z,14.43
2023-01-25T21:48:36.478Z,15.57
2023-01-25T21:51:47.031Z,14.33
2023-01-25T21:54:50.191Z,15.03
2023-01-25T21:57:53.233Z,15.50
2023-01-25T22:01:01.893Z,14.77
2023-01-25T22:04:05.349Z,14.37
2023-01-25T22:07:10.550Z,14.77
2023-01-25T22:10:13.626Z,15.10
2023-01-25T22:13:16.629Z,16.67
2023-01-25T22:16:21.332Z,15.37
2023-01-25T22:19:24.522Z,15.80
2023-01-25T22:22:28.913Z,16.07
2023-01-25T22:25:31.922Z,16.30
2023-01-25T22:28:40.052Z,16.43
2023-01-25T22:31:43.981Z,14.93
2023-01-25T22:34:47.058Z,14.77
2023-01-25T22:37:51.413Z,14.13
2023-01-25T22:40:56.438Z,15.77
2023-01-25T22:43:59.777Z,16.03
2023-01-25T22:47:02.820Z,14.30
2023-01-25T22:50:06.659Z,15.20
2023-01-25T22:53:11.047Z,15.63
2023-01-25T22:56:15.507Z,14.43
2023-01-25T22:59:19.370Z,13.23
2023-01-25T23:02:22.417Z,14.73
2023-01-25T23:05:25.509Z,15.80
2023-01-25T23:08:33.534Z,15.57
2023-01-25T23:11:38.248Z,14.00
2023-01-25T23:14:53.872Z,16.80
2023-01-25T23:18:14.320Z,15.10
2023-01-25T23:21:18.173Z,15.40
2023-01-25T23:24:26.368Z,16.10
2023-01-25T23:27:29.454Z,15.97
2023-01-25T23:30:32.586Z,14.67
2023-01-25T23:33:35.640Z,14.63
2023-01-25T23:36:41.307Z,15.47
2023-01-25T23:39:45.774Z,13.40
2023-01-25T23:42:48.729Z,15.47
2023-01-25T23:45:51.742Z,14.63
2023-01-25T23:48:54.979Z,15.50
2023-01-25T23:51:58.018Z,15.47
2023-01-25T23:55:02.607Z,15.23
2023-01-25T23:58:05.941Z,16.33
